sensor_id;sensor_type;location;lat;lon;timestamp;P1;durP1;ratioP1;P2;durP2;ratioP2
78989;SDS011;68390;52.130;21.218;2023-06-22T00:00:51;33.88;;;28.27;;
78989;SDS011;68390;52.130;21.218;2023-06-22T00:03:17;36.22;;;30.67;;
78989;SDS011;68390;52.130;21.218;2023-06-22T00:05:43;32.47;;;27.85;;
78989;SDS011;68390;52.130;21.218;2023-06-22T00:08:09;39.97;;;33.33;;
78989;SDS011;68390;52.130;21.218;2023-06-22T00:10:34;37.78;;;32.33;;
78989;SDS011;68390;52.130;21.218;2023-06-22T00:13:00;35.65;;;29.73;;
78989;SDS011;68390;52.130;21.218;2023-06-22T00:15:25;33.10;;;28.92;;
78989;SDS011;68390;52.130;21.218;2023-06-22T00:17:51;37.88;;;32.90;;
78989;SDS011;68390;52.130;21.218;2023-06-22T00:20:16;34.00;;;28.47;;
78989;SDS011;68390;52.130;21.218;2023-06-22T00:22:43;35.95;;;29.48;;
78989;SDS011;68390;52.130;21.218;2023-06-22T00:25:13;35.58;;;30.60;;
78989;SDS011;68390;52.130;21.218;2023-06-22T00:27:38;34.17;;;28.20;;
78989;SDS011;68390;52.130;21.218;2023-06-22T00:30:03;34.25;;;29.73;;
78989;SDS011;68390;52.130;21.218;2023-06-22T00:32:29;28.10;;;23.02;;
78989;SDS011;68390;52.130;21.218;2023-06-22T00:34:55;35.50;;;29.42;;
78989;SDS011;68390;52.130;21.218;2023-06-22T00:37:20;31.00;;;26.00;;
78989;SDS011;68390;52.130;21.218;2023-06-22T00:39:50;31.67;;;26.63;;
78989;SDS011;68390;52.130;21.218;2023-06-22T00:42:16;33.83;;;28.17;;
78989;SDS011;68390;52.130;21.218;2023-06-22T00:44:41;33.00;;;28.98;;
78989;SDS011;68390;52.130;21.218;2023-06-22T00:47:07;36.75;;;31.33;;
78989;SDS011;68390;52.130;21.218;2023-06-22T00:49:32;40.70;;;34.03;;
78989;SDS011;68390;52.130;21.218;2023-06-22T00:51:58;40.03;;;34.33;;
78989;SDS011;68390;52.130;21.218;2023-06-22T00:54:24;37.17;;;32.50;;
78989;SDS011;68390;52.130;21.218;2023-06-22T00:56:53;38.80;;;31.10;;
78989;SDS011;68390;52.130;21.218;2023-06-22T00:59:25;42.50;;;35.25;;
78989;SDS011;68390;52.130;21.218;2023-06-22T01:01:51;44.22;;;36.22;;
78989;SDS011;68390;52.130;21.218;2023-06-22T01:04:17;39.50;;;33.97;;
78989;SDS011;68390;52.130;21.218;2023-06-22T01:06:47;34.58;;;28.23;;
78989;SDS011;68390;52.130;21.218;2023-06-22T01:09:28;45.10;;;36.30;;
78989;SDS011;68390;52.130;21.218;2023-06-22T01:12:02;40.90;;;34.45;;
78989;SDS011;68390;52.130;21.218;2023-06-22T01:17:08;42.40;;;33.80;;
78989;SDS011;68390;52.130;21.218;2023-06-22T01:19:50;41.22;;;34.65;;
78989;SDS011;68390;52.130;21.218;2023-06-22T01:22:25;34.90;;;30.02;;
78989;SDS011;68390;52.130;21.218;2023-06-22T01:25:19;43.10;;;34.60;;
78989;SDS011;68390;52.130;21.218;2023-06-22T01:30:40;43.30;;;34.80;;
78989;SDS011;68390;52.130;21.218;2023-06-22T01:33:09;43.22;;;34.97;;
78989;SDS011;68390;52.130;21.218;2023-06-22T01:35:37;42.88;;;36.65;;
78989;SDS011;68390;52.130;21.218;2023-06-22T01:38:03;40.22;;;33.13;;
78989;SDS011;68390;52.130;21.218;2023-06-22T01:40:30;46.80;;;37.55;;
78989;SDS011;68390;52.130;21.218;2023-06-22T01:42:58;43.35;;;36.58;;
78989;SDS011;68390;52.130;21.218;2023-06-22T01:45:25;28.60;;;24.73;;
78989;SDS011;68390;52.130;21.218;2023-06-22T01:47:52;37.50;;;30.92;;
78989;SDS011;68390;52.130;21.218;2023-06-22T01:50:17;46.45;;;36.45;;
78989;SDS011;68390;52.130;21.218;2023-06-22T01:52:43;49.15;;;37.00;;
78989;SDS011;68390;52.130;21.218;2023-06-22T01:55:08;46.55;;;38.47;;
78989;SDS011;68390;52.130;21.218;2023-06-22T01:57:33;34.78;;;29.42;;
78989;SDS011;68390;52.130;21.218;2023-06-22T02:00:00;38.10;;;32.45;;
78989;SDS011;68390;52.130;21.218;2023-06-22T02:02:43;39.70;;;33.67;;
78989;SDS011;68390;52.130;21.218;2023-06-22T02:05:16;51.30;;;39.80;;
78989;SDS011;68390;52.130;21.218;2023-06-22T02:07:49;48.60;;;41.45;;
78989;SDS011;68390;52.130;21.218;2023-06-22T02:10:20;46.95;;;37.38;;
78989;SDS011;68390;52.130;21.218;2023-06-22T02:12:47;40.72;;;33.25;;
78989;SDS011;68390;52.130;21.218;2023-06-22T02:15:14;39.45;;;32.92;;
78989;SDS011;68390;52.130;21.218;2023-06-22T02:17:42;44.47;;;36.83;;
78989;SDS011;68390;52.130;21.218;2023-06-22T02:20:16;40.50;;;32.58;;
78989;SDS011;68390;52.130;21.218;2023-06-22T02:22:41;48.85;;;38.90;;
78989;SDS011;68390;52.130;21.218;2023-06-22T02:25:07;47.85;;;37.63;;
78989;SDS011;68390;52.130;21.218;2023-06-22T02:27:33;46.78;;;38.53;;
78989;SDS011;68390;52.130;21.218;2023-06-22T02:29:58;48.65;;;38.10;;
78989;SDS011;68390;52.130;21.218;2023-06-22T02:32:23;47.15;;;38.00;;
78989;SDS011;68390;52.130;21.218;2023-06-22T02:34:49;43.53;;;35.58;;
78989;SDS011;68390;52.130;21.218;2023-06-22T02:37:14;40.43;;;33.87;;
78989;SDS011;68390;52.130;21.218;2023-06-22T02:39:40;41.97;;;33.17;;
78989;SDS011;68390;52.130;21.218;2023-06-22T02:42:05;39.40;;;32.60;;
78989;SDS011;68390;52.130;21.218;2023-06-22T02:44:31;44.92;;;34.80;;
78989;SDS011;68390;52.130;21.218;2023-06-22T02:46:56;39.40;;;31.95;;
78989;SDS011;68390;52.130;21.218;2023-06-22T02:49:22;36.30;;;29.05;;
78989;SDS011;68390;52.130;21.218;2023-06-22T02:51:48;42.10;;;33.22;;
78989;SDS011;68390;52.130;21.218;2023-06-22T02:54:13;42.05;;;32.72;;
78989;SDS011;68390;52.130;21.218;2023-06-22T02:56:41;42.10;;;33.80;;
78989;SDS011;68390;52.130;21.218;2023-06-22T02:59:08;45.53;;;34.13;;
78989;SDS011;68390;52.130;21.218;2023-06-22T03:01:35;44.08;;;33.75;;
78989;SDS011;68390;52.130;21.218;2023-06-22T03:04:05;48.53;;;36.95;;
78989;SDS011;68390;52.130;21.218;2023-06-22T03:06:33;44.67;;;34.50;;
78989;SDS011;68390;52.130;21.218;2023-06-22T03:08:59;46.20;;;35.83;;
78989;SDS011;68390;52.130;21.218;2023-06-22T03:11:26;48.83;;;33.35;;
78989;SDS011;68390;52.130;21.218;2023-06-22T03:13:52;46.38;;;34.67;;
78989;SDS011;68390;52.130;21.218;2023-06-22T03:16:18;48.35;;;37.30;;
78989;SDS011;68390;52.130;21.218;2023-06-22T03:18:44;50.83;;;36.47;;
78989;SDS011;68390;52.130;21.218;2023-06-22T03:21:09;48.08;;;34.78;;
78989;SDS011;68390;52.130;21.218;2023-06-22T03:23:35;50.58;;;36.05;;
78989;SDS011;68390;52.130;21.218;2023-06-22T03:26:01;40.85;;;30.50;;
78989;SDS011;68390;52.130;21.218;2023-06-22T03:28:26;52.45;;;37.78;;
78989;SDS011;68390;52.130;21.218;2023-06-22T03:30:52;48.60;;;37.03;;
78989;SDS011;68390;52.130;21.218;2023-06-22T03:33:17;40.67;;;32.97;;
78989;SDS011;68390;52.130;21.218;2023-06-22T03:35:42;55.25;;;39.63;;
78989;SDS011;68390;52.130;21.218;2023-06-22T03:38:08;49.70;;;35.60;;
78989;SDS011;68390;52.130;21.218;2023-06-22T03:40:33;65.70;;;42.40;;
78989;SDS011;68390;52.130;21.218;2023-06-22T03:42:58;48.75;;;33.22;;
78989;SDS011;68390;52.130;21.218;2023-06-22T03:45:24;59.03;;;37.50;;
78989;SDS011;68390;52.130;21.218;2023-06-22T03:47:49;61.25;;;39.33;;
78989;SDS011;68390;52.130;21.218;2023-06-22T03:50:14;65.35;;;42.55;;
78989;SDS011;68390;52.130;21.218;2023-06-22T03:52:40;66.35;;;44.05;;
78989;SDS011;68390;52.130;21.218;2023-06-22T03:55:05;62.85;;;36.65;;
78989;SDS011;68390;52.130;21.218;2023-06-22T03:57:31;58.53;;;38.72;;
78989;SDS011;68390;52.130;21.218;2023-06-22T03:59:57;70.55;;;43.22;;
78989;SDS011;68390;52.130;21.218;2023-06-22T04:02:23;68.78;;;45.90;;
78989;SDS011;68390;52.130;21.218;2023-06-22T04:04:49;50.92;;;34.53;;
78989;SDS011;68390;52.130;21.218;2023-06-22T04:07:14;66.72;;;44.72;;
78989;SDS011;68390;52.130;21.218;2023-06-22T04:09:40;65.18;;;44.22;;
78989;SDS011;68390;52.130;21.218;2023-06-22T04:12:05;63.33;;;43.75;;
78989;SDS011;68390;52.130;21.218;2023-06-22T04:14:31;68.63;;;45.35;;
78989;SDS011;68390;52.130;21.218;2023-06-22T04:16:57;71.97;;;48.58;;
78989;SDS011;68390;52.130;21.218;2023-06-22T04:19:22;63.70;;;44.38;;
78989;SDS011;68390;52.130;21.218;2023-06-22T04:21:48;44.28;;;31.00;;
78989;SDS011;68390;52.130;21.218;2023-06-22T04:24:14;69.40;;;43.67;;
78989;SDS011;68390;52.130;21.218;2023-06-22T04:26:40;62.45;;;43.50;;
78989;SDS011;68390;52.130;21.218;2023-06-22T04:29:07;53.80;;;41.25;;
78989;SDS011;68390;52.130;21.218;2023-06-22T04:31:36;56.03;;;39.60;;
78989;SDS011;68390;52.130;21.218;2023-06-22T04:34:02;57.38;;;43.08;;
78989;SDS011;68390;52.130;21.218;2023-06-22T04:39:03;53.75;;;40.50;;
78989;SDS011;68390;52.130;21.218;2023-06-22T04:41:34;54.83;;;39.40;;
78989;SDS011;68390;52.130;21.218;2023-06-22T04:44:13;45.15;;;34.45;;
78989;SDS011;68390;52.130;21.218;2023-06-22T04:46:49;43.55;;;33.92;;
78989;SDS011;68390;52.130;21.218;2023-06-22T04:49:19;51.00;;;38.45;;
78989;SDS011;68390;52.130;21.218;2023-06-22T04:51:45;42.80;;;35.50;;
78989;SDS011;68390;52.130;21.218;2023-06-22T04:54:10;50.47;;;39.03;;
78989;SDS011;68390;52.130;21.218;2023-06-22T04:56:36;53.08;;;38.78;;
78989;SDS011;68390;52.130;21.218;2023-06-22T04:59:02;43.72;;;34.42;;
78989;SDS011;68390;52.130;21.218;2023-06-22T05:01:28;45.25;;;37.50;;
78989;SDS011;68390;52.130;21.218;2023-06-22T05:03:55;41.42;;;33.80;;
78989;SDS011;68390;52.130;21.218;2023-06-22T05:06:25;38.97;;;31.50;;
78989;SDS011;68390;52.130;21.218;2023-06-22T05:08:52;32.25;;;25.48;;
78989;SDS011;68390;52.130;21.218;2023-06-22T05:11:22;45.17;;;34.67;;
78989;SDS011;68390;52.130;21.218;2023-06-22T05:13:52;40.63;;;32.38;;
78989;SDS011;68390;52.130;21.218;2023-06-22T05:16:18;44.95;;;34.03;;
78989;SDS011;68390;52.130;21.218;2023-06-22T05:18:48;34.80;;;26.55;;
78989;SDS011;68390;52.130;21.218;2023-06-22T05:21:20;38.38;;;30.23;;
78989;SDS011;68390;52.130;21.218;2023-06-22T05:23:47;38.78;;;31.85;;
78989;SDS011;68390;52.130;21.218;2023-06-22T05:26:12;41.70;;;32.65;;
78989;SDS011;68390;52.130;21.218;2023-06-22T05:28:37;40.75;;;32.13;;
78989;SDS011;68390;52.130;21.218;2023-06-22T05:31:03;36.38;;;29.95;;
78989;SDS011;68390;52.130;21.218;2023-06-22T05:33:29;42.15;;;33.97;;
78989;SDS011;68390;52.130;21.218;2023-06-22T05:35:54;39.55;;;31.50;;
78989;SDS011;68390;52.130;21.218;2023-06-22T05:38:19;44.42;;;33.38;;
78989;SDS011;68390;52.130;21.218;2023-06-22T05:40:45;41.97;;;33.40;;
78989;SDS011;68390;52.130;21.218;2023-06-22T05:43:10;40.17;;;30.92;;
78989;SDS011;68390;52.130;21.218;2023-06-22T05:45:35;42.40;;;34.47;;
78989;SDS011;68390;52.130;21.218;2023-06-22T05:48:01;49.95;;;37.92;;
78989;SDS011;68390;52.130;21.218;2023-06-22T05:50:26;41.38;;;32.78;;
78989;SDS011;68390;52.130;21.218;2023-06-22T05:52:51;50.90;;;37.35;;
78989;SDS011;68390;52.130;21.218;2023-06-22T05:55:17;41.70;;;34.45;;
78989;SDS011;68390;52.130;21.218;2023-06-22T05:57:43;49.50;;;35.75;;
78989;SDS011;68390;52.130;21.218;2023-06-22T06:00:09;46.67;;;34.78;;
78989;SDS011;68390;52.130;21.218;2023-06-22T06:02:36;40.38;;;31.08;;
78989;SDS011;68390;52.130;21.218;2023-06-22T06:05:02;46.72;;;35.70;;
78989;SDS011;68390;52.130;21.218;2023-06-22T06:07:28;40.50;;;32.30;;
78989;SDS011;68390;52.130;21.218;2023-06-22T06:09:54;44.63;;;31.90;;
78989;SDS011;68390;52.130;21.218;2023-06-22T06:12:19;44.90;;;35.13;;
78989;SDS011;68390;52.130;21.218;2023-06-22T06:14:45;44.95;;;34.83;;
78989;SDS011;68390;52.130;21.218;2023-06-22T06:17:10;39.28;;;31.30;;
78989;SDS011;68390;52.130;21.218;2023-06-22T06:19:36;44.33;;;34.25;;
78989;SDS011;68390;52.130;21.218;2023-06-22T06:22:01;44.42;;;33.22;;
78989;SDS011;68390;52.130;21.218;2023-06-22T06:24:26;44.90;;;33.40;;
78989;SDS011;68390;52.130;21.218;2023-06-22T06:26:52;35.60;;;27.98;;
78989;SDS011;68390;52.130;21.218;2023-06-22T06:29:17;43.00;;;32.65;;
78989;SDS011;68390;52.130;21.218;2023-06-22T06:31:42;46.00;;;34.38;;
78989;SDS011;68390;52.130;21.218;2023-06-22T06:34:08;43.15;;;32.95;;
78989;SDS011;68390;52.130;21.218;2023-06-22T06:36:33;43.80;;;32.17;;
78989;SDS011;68390;52.130;21.218;2023-06-22T06:38:59;38.13;;;30.30;;
78989;SDS011;68390;52.130;21.218;2023-06-22T06:41:24;37.58;;;31.33;;
78989;SDS011;68390;52.130;21.218;2023-06-22T06:43:49;34.25;;;27.20;;
78989;SDS011;68390;52.130;21.218;2023-06-22T06:46:15;37.58;;;27.20;;
78989;SDS011;68390;52.130;21.218;2023-06-22T06:48:40;37.17;;;29.80;;
78989;SDS011;68390;52.130;21.218;2023-06-22T06:51:06;39.92;;;28.92;;
78989;SDS011;68390;52.130;21.218;2023-06-22T06:53:34;32.53;;;25.90;;
78989;SDS011;68390;52.130;21.218;2023-06-22T06:56:00;38.92;;;29.25;;
78989;SDS011;68390;52.130;21.218;2023-06-22T06:58:25;36.22;;;28.35;;
78989;SDS011;68390;52.130;21.218;2023-06-22T07:00:51;31.27;;;25.92;;
78989;SDS011;68390;52.130;21.218;2023-06-22T07:03:16;32.90;;;26.57;;
78989;SDS011;68390;52.130;21.218;2023-06-22T07:05:41;33.70;;;26.13;;
78989;SDS011;68390;52.130;21.218;2023-06-22T07:08:07;32.10;;;25.27;;
78989;SDS011;68390;52.130;21.218;2023-06-22T07:10:32;31.25;;;25.30;;
78989;SDS011;68390;52.130;21.218;2023-06-22T07:12:58;37.22;;;27.55;;
78989;SDS011;68390;52.130;21.218;2023-06-22T07:15:23;26.58;;;21.45;;
78989;SDS011;68390;52.130;21.218;2023-06-22T07:17:49;31.27;;;24.98;;
78989;SDS011;68390;52.130;21.218;2023-06-22T07:20:14;30.17;;;24.77;;
78989;SDS011;68390;52.130;21.218;2023-06-22T07:22:40;30.75;;;24.85;;
78989;SDS011;68390;52.130;21.218;2023-06-22T07:25:07;30.92;;;24.80;;
78989;SDS011;68390;52.130;21.218;2023-06-22T07:27:39;31.80;;;24.48;;
78989;SDS011;68390;52.130;21.218;2023-06-22T07:30:08;29.35;;;23.13;;
78989;SDS011;68390;52.130;21.218;2023-06-22T07:32:35;28.88;;;22.80;;
78989;SDS011;68390;52.130;21.218;2023-06-22T07:35:01;28.75;;;23.10;;
78989;SDS011;68390;52.130;21.218;2023-06-22T07:37:27;32.83;;;23.58;;
78989;SDS011;68390;52.130;21.218;2023-06-22T07:39:54;25.40;;;21.05;;
78989;SDS011;68390;52.130;21.218;2023-06-22T07:42:23;27.27;;;21.67;;
78989;SDS011;68390;52.130;21.218;2023-06-22T07:44:49;22.80;;;19.75;;
78989;SDS011;68390;52.130;21.218;2023-06-22T07:47:16;26.65;;;21.35;;
78989;SDS011;68390;52.130;21.218;2023-06-22T07:49:43;25.73;;;19.92;;
78989;SDS011;68390;52.130;21.218;2023-06-22T07:52:08;22.67;;;17.50;;
78989;SDS011;68390;52.130;21.218;2023-06-22T07:54:34;25.50;;;19.77;;
78989;SDS011;68390;52.130;21.218;2023-06-22T07:56:59;18.95;;;16.23;;
78989;SDS011;68390;52.130;21.218;2023-06-22T07:59:24;25.08;;;19.70;;
78989;SDS011;68390;52.130;21.218;2023-06-22T08:01:50;22.40;;;17.20;;
78989;SDS011;68390;52.130;21.218;2023-06-22T08:04:15;23.38;;;19.67;;
78989;SDS011;68390;52.130;21.218;2023-06-22T08:06:41;24.00;;;17.33;;
78989;SDS011;68390;52.130;21.218;2023-06-22T08:09:06;21.05;;;14.38;;
78989;SDS011;68390;52.130;21.218;2023-06-22T08:11:31;17.08;;;13.70;;
78989;SDS011;68390;52.130;21.218;2023-06-22T08:13:57;13.98;;;12.20;;
78989;SDS011;68390;52.130;21.218;2023-06-22T08:16:23;14.85;;;11.98;;
78989;SDS011;68390;52.130;21.218;2023-06-22T08:18:49;14.57;;;12.40;;
78989;SDS011;68390;52.130;21.218;2023-06-22T08:21:14;16.02;;;12.60;;
78989;SDS011;68390;52.130;21.218;2023-06-22T08:23:40;14.15;;;11.38;;
78989;SDS011;68390;52.130;21.218;2023-06-22T08:26:05;17.45;;;13.63;;
78989;SDS011;68390;52.130;21.218;2023-06-22T08:28:31;11.98;;;10.25;;
78989;SDS011;68390;52.130;21.218;2023-06-22T08:30:56;13.18;;;9.88;;
78989;SDS011;68390;52.130;21.218;2023-06-22T08:33:22;12.20;;;9.27;;
78989;SDS011;68390;52.130;21.218;2023-06-22T08:35:54;10.98;;;8.82;;
78989;SDS011;68390;52.130;21.218;2023-06-22T08:38:23;12.38;;;9.05;;
78989;SDS011;68390;52.130;21.218;2023-06-22T08:40:48;11.20;;;9.73;;
78989;SDS011;68390;52.130;21.218;2023-06-22T08:43:14;12.60;;;8.60;;
78989;SDS011;68390;52.130;21.218;2023-06-22T08:45:39;10.68;;;7.70;;
78989;SDS011;68390;52.130;21.218;2023-06-22T08:48:05;10.75;;;7.80;;
78989;SDS011;68390;52.130;21.218;2023-06-22T08:50:30;12.38;;;8.95;;
78989;SDS011;68390;52.130;21.218;2023-06-22T08:52:56;12.20;;;8.45;;
78989;SDS011;68390;52.130;21.218;2023-06-22T08:55:21;14.95;;;11.57;;
78989;SDS011;68390;52.130;21.218;2023-06-22T08:57:46;10.10;;;7.90;;
78989;SDS011;68390;52.130;21.218;2023-06-22T09:00:12;10.52;;;6.93;;
78989;SDS011;68390;52.130;21.218;2023-06-22T09:02:42;9.88;;;6.85;;
78989;SDS011;68390;52.130;21.218;2023-06-22T09:05:09;9.48;;;6.53;;
78989;SDS011;68390;52.130;21.218;2023-06-22T09:07:34;9.60;;;6.15;;
78989;SDS011;68390;52.130;21.218;2023-06-22T09:10:00;8.35;;;5.97;;
78989;SDS011;68390;52.130;21.218;2023-06-22T09:12:25;9.57;;;6.18;;
78989;SDS011;68390;52.130;21.218;2023-06-22T09:14:52;9.00;;;6.53;;
78989;SDS011;68390;52.130;21.218;2023-06-22T09:17:18;10.85;;;6.30;;
78989;SDS011;68390;52.130;21.218;2023-06-22T09:19:43;8.57;;;6.72;;
78989;SDS011;68390;52.130;21.218;2023-06-22T09:22:09;8.27;;;5.60;;
78989;SDS011;68390;52.130;21.218;2023-06-22T09:24:34;6.95;;;6.25;;
78989;SDS011;68390;52.130;21.218;2023-06-22T09:26:59;12.63;;;6.75;;
78989;SDS011;68390;52.130;21.218;2023-06-22T09:29:25;9.85;;;6.70;;
78989;SDS011;68390;52.130;21.218;2023-06-22T09:31:50;13.85;;;6.72;;
78989;SDS011;68390;52.130;21.218;2023-06-22T09:34:15;8.93;;;6.63;;
78989;SDS011;68390;52.130;21.218;2023-06-22T09:36:45;11.52;;;6.25;;
78989;SDS011;68390;52.130;21.218;2023-06-22T09:39:10;8.60;;;6.40;;
78989;SDS011;68390;52.130;21.218;2023-06-22T09:41:36;9.93;;;6.15;;
78989;SDS011;68390;52.130;21.218;2023-06-22T09:44:01;7.73;;;6.07;;
78989;SDS011;68390;52.130;21.218;2023-06-22T09:46:27;8.13;;;5.32;;
78989;SDS011;68390;52.130;21.218;2023-06-22T09:48:53;8.20;;;6.28;;
78989;SDS011;68390;52.130;21.218;2023-06-22T09:51:18;8.20;;;5.88;;
78989;SDS011;68390;52.130;21.218;2023-06-22T09:53:45;9.45;;;6.07;;
78989;SDS011;68390;52.130;21.218;2023-06-22T09:56:10;9.95;;;6.15;;
78989;SDS011;68390;52.130;21.218;2023-06-22T09:58:43;11.85;;;6.25;;
78989;SDS011;68390;52.130;21.218;2023-06-22T10:01:11;8.07;;;5.65;;
78989;SDS011;68390;52.130;21.218;2023-06-22T10:03:38;7.93;;;5.57;;
78989;SDS011;68390;52.130;21.218;2023-06-22T10:06:03;7.63;;;4.75;;
78989;SDS011;68390;52.130;21.218;2023-06-22T10:08:28;8.93;;;5.70;;
78989;SDS011;68390;52.130;21.218;2023-06-22T10:10:54;6.25;;;5.00;;
78989;SDS011;68390;52.130;21.218;2023-06-22T10:13:19;7.82;;;5.05;;
78989;SDS011;68390;52.130;21.218;2023-06-22T10:15:45;11.63;;;5.72;;
78989;SDS011;68390;52.130;21.218;2023-06-22T10:18:15;8.32;;;5.18;;
78989;SDS011;68390;52.130;21.218;2023-06-22T10:20:41;6.68;;;5.18;;
78989;SDS011;68390;52.130;21.218;2023-06-22T10:23:06;7.65;;;5.10;;
78989;SDS011;68390;52.130;21.218;2023-06-22T10:25:32;10.20;;;6.22;;
78989;SDS011;68390;52.130;21.218;2023-06-22T10:27:57;7.00;;;5.18;;
78989;SDS011;68390;52.130;21.218;2023-06-22T10:30:22;6.13;;;4.80;;
78989;SDS011;68390;52.130;21.218;2023-06-22T10:32:48;8.30;;;5.45;;
78989;SDS011;68390;52.130;21.218;2023-06-22T10:35:14;7.10;;;4.70;;
78989;SDS011;68390;52.130;21.218;2023-06-22T10:37:44;8.00;;;4.80;;
78989;SDS011;68390;52.130;21.218;2023-06-22T10:40:13;9.43;;;5.20;;
78989;SDS011;68390;52.130;21.218;2023-06-22T10:42:40;8.82;;;5.25;;
78989;SDS011;68390;52.130;21.218;2023-06-22T10:45:06;6.35;;;4.60;;
78989;SDS011;68390;52.130;21.218;2023-06-22T10:47:32;6.68;;;4.50;;
78989;SDS011;68390;52.130;21.218;2023-06-22T10:49:57;11.30;;;4.38;;
78989;SDS011;68390;52.130;21.218;2023-06-22T10:52:22;10.13;;;4.60;;
78989;SDS011;68390;52.130;21.218;2023-06-22T10:54:48;7.03;;;4.13;;
78989;SDS011;68390;52.130;21.218;2023-06-22T10:57:14;8.15;;;4.38;;
78989;SDS011;68390;52.130;21.218;2023-06-22T10:59:39;6.57;;;4.40;;
78989;SDS011;68390;52.130;21.218;2023-06-22T11:02:05;8.25;;;4.60;;
78989;SDS011;68390;52.130;21.218;2023-06-22T11:04:30;5.70;;;4.43;;
78989;SDS011;68390;52.130;21.218;2023-06-22T11:07:01;5.65;;;4.50;;
78989;SDS011;68390;52.130;21.218;2023-06-22T11:09:27;5.88;;;4.50;;
78989;SDS011;68390;52.130;21.218;2023-06-22T11:11:52;7.88;;;4.53;;
78989;SDS011;68390;52.130;21.218;2023-06-22T11:14:21;6.85;;;4.28;;
78989;SDS011;68390;52.130;21.218;2023-06-22T11:16:47;10.13;;;5.28;;
78989;SDS011;68390;52.130;21.218;2023-06-22T11:19:12;11.63;;;5.15;;
78989;SDS011;68390;52.130;21.218;2023-06-22T11:21:38;11.82;;;4.95;;
78989;SDS011;68390;52.130;21.218;2023-06-22T11:24:04;8.00;;;4.80;;
78989;SDS011;68390;52.130;21.218;2023-06-22T11:26:29;6.72;;;4.57;;
78989;SDS011;68390;52.130;21.218;2023-06-22T11:28:55;6.43;;;4.63;;
78989;SDS011;68390;52.130;21.218;2023-06-22T11:31:20;6.07;;;4.72;;
78989;SDS011;68390;52.130;21.218;2023-06-22T11:33:46;8.38;;;5.25;;
78989;SDS011;68390;52.130;21.218;2023-06-22T11:36:12;6.97;;;4.82;;
78989;SDS011;68390;52.130;21.218;2023-06-22T11:38:39;6.57;;;4.95;;
78989;SDS011;68390;52.130;21.218;2023-06-22T11:41:07;7.13;;;5.05;;
78989;SDS011;68390;52.130;21.218;2023-06-22T11:43:33;7.80;;;5.13;;
78989;SDS011;68390;52.130;21.218;2023-06-22T11:45:59;7.60;;;4.50;;
78989;SDS011;68390;52.130;21.218;2023-06-22T11:48:26;6.40;;;4.15;;
78989;SDS011;68390;52.130;21.218;2023-06-22T11:50:51;9.70;;;4.45;;
78989;SDS011;68390;52.130;21.218;2023-06-22T11:53:16;8.63;;;4.47;;
78989;SDS011;68390;52.130;21.218;2023-06-22T11:55:43;6.47;;;4.65;;
78989;SDS011;68390;52.130;21.218;2023-06-22T11:58:11;6.90;;;4.85;;
78989;SDS011;68390;52.130;21.218;2023-06-22T12:00:37;12.00;;;5.60;;
78989;SDS011;68390;52.130;21.218;2023-06-22T12:03:02;8.20;;;4.72;;
78989;SDS011;68390;52.130;21.218;2023-06-22T12:05:28;8.52;;;5.05;;
78989;SDS011;68390;52.130;21.218;2023-06-22T12:07:53;9.20;;;5.35;;
78989;SDS011;68390;52.130;21.218;2023-06-22T12:10:20;6.90;;;4.97;;
78989;SDS011;68390;52.130;21.218;2023-06-22T12:12:45;8.93;;;4.80;;
78989;SDS011;68390;52.130;21.218;2023-06-22T12:15:11;6.32;;;4.60;;
78989;SDS011;68390;52.130;21.218;2023-06-22T12:17:36;8.43;;;4.82;;
78989;SDS011;68390;52.130;21.218;2023-06-22T12:20:02;5.70;;;4.78;;
78989;SDS011;68390;52.130;21.218;2023-06-22T12:22:31;10.00;;;5.43;;
78989;SDS011;68390;52.130;21.218;2023-06-22T12:24:57;11.07;;;5.10;;
78989;SDS011;68390;52.130;21.218;2023-06-22T12:27:23;10.77;;;5.50;;
78989;SDS011;68390;52.130;21.218;2023-06-22T12:29:48;6.25;;;4.43;;
78989;SDS011;68390;52.130;21.218;2023-06-22T12:32:14;13.07;;;5.80;;
78989;SDS011;68390;52.130;21.218;2023-06-22T12:34:41;8.70;;;5.60;;
78989;SDS011;68390;52.130;21.218;2023-06-22T12:37:07;7.22;;;5.63;;
78989;SDS011;68390;52.130;21.218;2023-06-22T12:39:32;6.97;;;5.10;;
78989;SDS011;68390;52.130;21.218;2023-06-22T12:41:58;7.03;;;5.43;;
78989;SDS011;68390;52.130;21.218;2023-06-22T12:44:23;8.10;;;5.10;;
78989;SDS011;68390;52.130;21.218;2023-06-22T12:46:49;6.78;;;5.07;;
78989;SDS011;68390;52.130;21.218;2023-06-22T12:49:14;9.57;;;5.38;;
78989;SDS011;68390;52.130;21.218;2023-06-22T12:51:40;9.02;;;5.53;;
78989;SDS011;68390;52.130;21.218;2023-06-22T12:54:07;6.65;;;5.28;;
78989;SDS011;68390;52.130;21.218;2023-06-22T12:56:33;7.10;;;5.18;;
78989;SDS011;68390;52.130;21.218;2023-06-22T12:58:58;8.43;;;5.18;;
78989;SDS011;68390;52.130;21.218;2023-06-22T13:01:27;6.13;;;4.68;;
78989;SDS011;68390;52.130;21.218;2023-06-22T13:03:52;7.63;;;5.20;;
78989;SDS011;68390;52.130;21.218;2023-06-22T13:06:18;6.68;;;5.18;;
78989;SDS011;68390;52.130;21.218;2023-06-22T13:08:44;8.23;;;5.00;;
78989;SDS011;68390;52.130;21.218;2023-06-22T13:11:09;7.10;;;4.90;;
78989;SDS011;68390;52.130;21.218;2023-06-22T13:13:34;7.88;;;4.80;;
78989;SDS011;68390;52.130;21.218;2023-06-22T13:16:00;7.90;;;5.32;;
78989;SDS011;68390;52.130;21.218;2023-06-22T13:18:25;7.43;;;5.40;;
78989;SDS011;68390;52.130;21.218;2023-06-22T13:20:50;6.78;;;4.90;;
78989;SDS011;68390;52.130;21.218;2023-06-22T13:23:18;6.80;;;5.43;;
78989;SDS011;68390;52.130;21.218;2023-06-22T13:25:43;7.32;;;4.93;;
78989;SDS011;68390;52.130;21.218;2023-06-22T13:28:08;9.25;;;4.97;;
78989;SDS011;68390;52.130;21.218;2023-06-22T13:30:35;8.98;;;5.07;;
78989;SDS011;68390;52.130;21.218;2023-06-22T13:33:00;5.60;;;4.72;;
78989;SDS011;68390;52.130;21.218;2023-06-22T13:35:26;6.85;;;4.82;;
78989;SDS011;68390;52.130;21.218;2023-06-22T13:37:51;5.68;;;4.55;;
78989;SDS011;68390;52.130;21.218;2023-06-22T13:40:17;6.83;;;5.13;;
78989;SDS011;68390;52.130;21.218;2023-06-22T13:42:42;7.28;;;5.28;;
78989;SDS011;68390;52.130;21.218;2023-06-22T13:45:08;6.53;;;4.95;;
78989;SDS011;68390;52.130;21.218;2023-06-22T13:47:33;7.60;;;5.18;;
78989;SDS011;68390;52.130;21.218;2023-06-22T13:49:59;6.18;;;4.88;;
78989;SDS011;68390;52.130;21.218;2023-06-22T13:52:24;6.78;;;4.63;;
78989;SDS011;68390;52.130;21.218;2023-06-22T13:54:50;8.30;;;5.22;;
78989;SDS011;68390;52.130;21.218;2023-06-22T13:57:15;9.15;;;4.85;;
78989;SDS011;68390;52.130;21.218;2023-06-22T13:59:41;7.10;;;5.22;;
78989;SDS011;68390;52.130;21.218;2023-06-22T14:02:06;7.28;;;5.35;;
78989;SDS011;68390;52.130;21.218;2023-06-22T14:04:32;8.25;;;5.00;;
78989;SDS011;68390;52.130;21.218;2023-06-22T14:06:57;6.75;;;5.13;;
78989;SDS011;68390;52.130;21.218;2023-06-22T14:09:23;7.35;;;5.10;;
78989;SDS011;68390;52.130;21.218;2023-06-22T14:11:48;9.07;;;5.30;;
78989;SDS011;68390;52.130;21.218;2023-06-22T14:14:13;6.82;;;5.20;;
78989;SDS011;68390;52.130;21.218;2023-06-22T14:16:39;7.00;;;5.18;;
78989;SDS011;68390;52.130;21.218;2023-06-22T14:19:04;7.35;;;5.10;;
78989;SDS011;68390;52.130;21.218;2023-06-22T14:21:30;7.82;;;5.43;;